Observations for Trim Market St
| Time | AQI | Temp °C | Hum % | Pres Pa | CO μg/m³ | H₂S μg/m³ | NO μg/m³ | NO₂ μg/m³ | O₃ μg/m³ | SO₂ μg/m³ | PM1 μg/m³ | PM2.5 μg/m³ | PM10 μg/m³ |
|---|---|---|---|---|---|---|---|---|---|---|---|---|---|
| Friday 10 July 2026 | |||||||||||||
| 04:11 | 1 | 17.2 | 78 | 15,042 | 0.06 | 0 | 0 | 3.36 | 12.36 | 0 | 4.28 | 6.95 | 10.43 |
| 04:10 | 1 | 17.2 | 78 | 15,245 | 0.07 | 0 | 0 | 2.36 | 8.34 | 0 | 2.85 | 5.53 | 11.01 |
| 04:09 | 1 | 17.2 | 78 | 15,493 | 0.12 | 0 | 0 | 6.56 | 16.44 | 0 | 7.13 | 8.85 | 13.33 |
| 04:08 | 1 | 17.2 | 78 | 15,804 | 0.07 | 0 | 0 | 7.66 | 13.48 | 0 | 7.13 | 9.33 | 13.33 |
| 04:07 | 1 | 17.2 | 78 | 16,020 | 0.07 | 0 | 0 | 4.37 | 11.79 | 0 | 5.7 | 7.91 | 12.17 |
| 04:06 | 1 | 17.2 | 78 | 16,010 | 0.07 | 0 | 0 | 2.96 | 12.14 | 0 | 6.41 | 8.38 | 13.91 |
| 04:05 | 1 | 17.2 | 78 | 16,057 | 0.07 | 0 | 0 | 2.17 | 13.22 | 0 | 5.7 | 7.91 | 12.76 |
| 04:04 | 1 | 17.2 | 78 | 16,137 | 0.08 | 0 | 0 | 6.47 | 11.45 | 0 | 6.41 | 6.96 | 12.17 |
| 04:03 | 1 | 17.2 | 78 | 16,440 | 0.07 | 0 | 0 | 4.87 | 10.91 | 0 | 7.13 | 8.39 | 12.17 |
| 04:02 | 1 | 17.2 | 78 | 16,687 | 0.07 | 0 | 0 | 4.27 | 13.31 | 0 | 5.7 | 8.39 | 12.17 |
| 04:01 | 1 | 17.2 | 78 | 16,886 | 0.06 | 0 | 1.68 | 3.19 | 11.37 | 0 | 5.7 | 6.97 | 10.44 |
| 04:00 | 1 | 17.2 | 78 | 17,098 | 0.07 | 0 | 0 | 2.69 | 17.28 | 0 | 7.13 | 9.34 | 14.5 |
| 03:58 | 1 | 17.2 | 78 | 17,365 | 0.07 | 0 | 0 | 6.2 | 14.88 | 0 | 3.56 | 6.97 | 10.44 |
| 03:53 | 1 | 17.3 | 78 | 18,363 | 0.05 | 0 | 0 | 5.08 | 11.57 | 0 | 5.7 | 7.93 | 12.77 |
| 03:52 | 1 | 17.3 | 78 | 18,677 | 0.06 | 0 | 0 | 3.98 | 12.18 | 0 | 4.99 | 8.41 | 12.19 |
| 03:49 | 1 | 17.3 | 77 | 19,346 | 0.05 | 0 | 0 | 4.9 | 12.72 | 0 | 4.28 | 8.42 | 12.78 |
| 03:43 | 1 | 17.4 | 77 | 21,464 | 0.05 | 0 | 0 | 6.01 | 11.21 | 0 | 5.7 | 7.49 | 11.04 |
| 03:42 | 1 | 17.3 | 77 | 21,877 | 0.04 | 0 | 0.13 | 3.44 | 14.75 | 0 | 4.28 | 7.01 | 11.04 |
| 03:41 | 1 | 17.3 | 77 | 22,273 | 0.05 | 0 | 0 | 5.14 | 14.42 | 0 | 6.41 | 10.34 | 14.55 |
| 03:40 | 1 | 17.3 | 77 | 22,803 | 0.05 | 0 | 0 | 2.75 | 13.99 | 0 | 4.99 | 7.97 | 12.22 |